createdAt,value
2023-02-17T00:01:10.795Z,19.02
2023-02-17T00:03:37.754Z,14.95
2023-02-17T00:06:09.272Z,15.50
2023-02-17T00:08:36.789Z,15.35
2023-02-17T00:13:30.774Z,12.95
2023-02-17T00:15:57.661Z,18.15
2023-02-17T00:18:24.637Z,12.68
2023-02-17T00:20:51.726Z,8.32
2023-02-17T00:23:18.713Z,11.68
2023-02-17T00:25:45.565Z,12.07
2023-02-17T00:28:12.413Z,12.48
2023-02-17T00:30:39.378Z,11.95
2023-02-17T00:33:06.573Z,11.50
2023-02-17T00:35:33.470Z,16.08
2023-02-17T00:38:00.397Z,11.63
2023-02-17T00:40:27.246Z,7.47
2023-02-17T00:42:54.814Z,6.93
2023-02-17T00:45:21.734Z,9.93
2023-02-17T00:47:48.716Z,10.52
2023-02-17T00:50:17.251Z,11.43
2023-02-17T00:52:44.065Z,9.77
2023-02-17T00:55:10.890Z,10.32
2023-02-17T00:57:37.817Z,9.45
2023-02-17T01:00:05.779Z,10.80
2023-02-17T01:02:34.117Z,9.35
2023-02-17T01:05:00.986Z,12.45
2023-02-17T01:07:27.855Z,9.80
2023-02-17T01:09:54.686Z,9.45
2023-02-17T01:12:22.077Z,11.05
2023-02-17T01:14:49.558Z,16.75
2023-02-17T01:19:43.188Z,8.52
2023-02-17T01:22:10.852Z,7.03
2023-02-17T01:24:38.983Z,8.50
2023-02-17T01:27:05.826Z,10.25
2023-02-17T01:29:32.679Z,6.65
2023-02-17T01:31:59.583Z,10.68
2023-02-17T01:34:27.733Z,9.30
2023-02-17T01:36:54.528Z,8.85
2023-02-17T01:39:21.406Z,15.07
2023-02-17T01:41:48.204Z,6.53
2023-02-17T01:44:16.847Z,9.10
2023-02-17T01:46:46.325Z,9.85
2023-02-17T01:49:37.714Z,8.45
2023-02-17T01:52:10.943Z,8.35
2023-02-17T01:55:03.314Z,9.27
2023-02-17T01:57:36.510Z,9.40
2023-02-17T02:00:08.162Z,10.80
2023-02-17T02:02:55.227Z,8.68
2023-02-17T02:05:22.642Z,9.00
2023-02-17T02:07:50.078Z,8.40
2023-02-17T02:12:44.800Z,8.38
2023-02-17T02:15:20.979Z,8.23
2023-02-17T02:18:09.986Z,7.63
2023-02-17T02:21:16.548Z,12.18
2023-02-17T02:23:55.672Z,7.80
2023-02-17T02:26:45.778Z,8.27
2023-02-17T02:29:30.693Z,8.70
2023-02-17T02:32:27.446Z,11.25
2023-02-17T02:35:05.765Z,8.93
2023-02-17T02:37:45.797Z,8.85
2023-02-17T02:40:16.374Z,7.53
2023-02-17T02:42:44.877Z,8.30
2023-02-17T02:45:12.313Z,7.95
2023-02-17T02:47:45.548Z,7.95
2023-02-17T02:50:19.825Z,9.65
2023-02-17T02:53:13.241Z,9.63
2023-02-17T02:55:58.541Z,8.18
2023-02-17T02:58:40.549Z,8.00
2023-02-17T03:01:18.861Z,9.25
2023-02-17T03:04:12.462Z,8.00
2023-02-17T03:07:07.686Z,8.65
2023-02-17T03:09:34.762Z,7.10
2023-02-17T03:12:01.589Z,8.35
2023-02-17T03:14:38.002Z,7.03
2023-02-17T03:17:05.084Z,7.57
2023-02-17T03:19:31.927Z,7.43
2023-02-17T03:22:18.573Z,7.38
2023-02-17T03:24:47.653Z,8.73
2023-02-17T03:27:14.782Z,7.65
2023-02-17T03:29:41.630Z,6.97
2023-02-17T03:32:08.762Z,5.05
2023-02-17T03:34:35.794Z,6.72
2023-02-17T03:37:02.907Z,7.03
2023-02-17T03:39:30.231Z,6.55
2023-02-17T03:41:57.221Z,7.20
2023-02-17T03:44:24.095Z,6.68
2023-02-17T03:46:50.924Z,6.18
2023-02-17T03:49:17.717Z,5.65
2023-02-17T03:51:44.586Z,5.90
2023-02-17T03:54:11.420Z,5.45
2023-02-17T03:56:38.388Z,5.07
2023-02-17T03:59:05.371Z,5.13
2023-02-17T04:01:32.426Z,6.25
2023-02-17T04:03:59.234Z,6.18
2023-02-17T04:06:26.139Z,5.53
2023-02-17T04:08:53.206Z,5.72
2023-02-17T04:11:19.995Z,5.88
2023-02-17T04:13:46.862Z,4.45
2023-02-17T04:16:13.832Z,6.43
2023-02-17T04:18:40.685Z,4.53
2023-02-17T04:21:07.721Z,5.75
2023-02-17T04:23:36.577Z,4.90
2023-02-17T04:26:08.340Z,4.72
2023-02-17T04:28:38.130Z,5.65
2023-02-17T04:31:05.185Z,4.18
2023-02-17T04:33:32.264Z,4.45
2023-02-17T04:36:01.981Z,4.38
2023-02-17T04:38:31.256Z,5.25
2023-02-17T04:40:59.784Z,4.88
2023-02-17T04:43:27.529Z,4.07
2023-02-17T04:45:54.603Z,5.15
2023-02-17T04:48:21.659Z,4.70
2023-02-17T04:50:48.475Z,4.55
2023-02-17T04:53:15.458Z,4.68
2023-02-17T04:55:42.566Z,4.15
2023-02-17T04:58:10.160Z,4.78
2023-02-17T05:00:37.223Z,5.47
2023-02-17T05:03:04.294Z,4.68
2023-02-17T05:05:31.168Z,5.38
2023-02-17T05:07:58.302Z,4.75
2023-02-17T05:10:25.232Z,4.95
2023-02-17T05:12:52.440Z,4.57
2023-02-17T05:15:19.486Z,5.32
2023-02-17T05:17:46.340Z,4.90
2023-02-17T05:20:13.240Z,5.20
2023-02-17T05:22:40.069Z,5.05
2023-02-17T05:25:07.646Z,6.20
2023-02-17T05:27:35.242Z,5.35
2023-02-17T05:30:02.101Z,5.45
2023-02-17T05:32:28.967Z,5.50
2023-02-17T05:34:55.793Z,5.68
2023-02-17T05:37:22.593Z,4.88
2023-02-17T05:39:49.366Z,5.38
2023-02-17T05:42:16.190Z,4.95
2023-02-17T05:44:42.979Z,5.95
2023-02-17T05:47:09.760Z,4.03
2023-02-17T05:49:36.575Z,6.15
2023-02-17T05:52:03.417Z,4.13
2023-02-17T05:54:30.464Z,4.88
2023-02-17T05:56:57.258Z,5.45
2023-02-17T05:59:24.375Z,6.75
2023-02-17T06:01:51.362Z,5.13
2023-02-17T06:04:18.200Z,5.45
2023-02-17T06:06:45.203Z,4.05
2023-02-17T06:09:12.108Z,4.82
2023-02-17T06:11:38.950Z,6.22
2023-02-17T06:14:05.839Z,5.88
2023-02-17T06:16:32.675Z,6.05
2023-02-17T06:19:02.576Z,7.97
2023-02-17T06:21:29.344Z,6.05
2023-02-17T06:23:56.161Z,3.60
2023-02-17T06:26:23.217Z,5.25
2023-02-17T06:28:50.101Z,5.45
2023-02-17T06:31:16.973Z,4.70
2023-02-17T06:33:43.832Z,11.00
2023-02-17T06:36:11.066Z,5.38
2023-02-17T06:38:37.878Z,4.93
2023-02-17T06:41:04.781Z,5.43
2023-02-17T06:43:31.670Z,6.15
2023-02-17T06:45:58.575Z,6.15
2023-02-17T06:48:25.492Z,5.88
2023-02-17T06:50:52.330Z,7.63
2023-02-17T06:53:19.281Z,5.53
2023-02-17T06:55:46.097Z,4.00
2023-02-17T06:58:12.958Z,4.88
2023-02-17T07:00:39.785Z,5.05
2023-02-17T07:03:06.744Z,3.75
2023-02-17T07:05:37.742Z,6.10
2023-02-17T07:08:05.289Z,5.70
2023-02-17T07:10:32.494Z,5.85
2023-02-17T07:12:59.468Z,6.28
2023-02-17T07:15:26.322Z,5.00
2023-02-17T07:17:53.131Z,5.85
2023-02-17T07:20:20.144Z,5.57
2023-02-17T07:22:46.969Z,5.40
2023-02-17T07:25:13.934Z,4.07
2023-02-17T07:27:41.564Z,5.78
2023-02-17T07:30:09.024Z,5.38
2023-02-17T07:35:02.636Z,5.60
2023-02-17T07:37:30.234Z,6.32
2023-02-17T07:39:57.288Z,5.07
2023-02-17T07:42:26.497Z,7.05
2023-02-17T07:44:53.374Z,5.40
2023-02-17T07:47:20.221Z,6.28
2023-02-17T07:49:47.032Z,6.55
2023-02-17T07:52:16.042Z,7.18
2023-02-17T07:54:42.818Z,6.50
2023-02-17T07:57:09.599Z,5.22
2023-02-17T07:59:36.397Z,7.03
2023-02-17T08:02:03.671Z,5.75
2023-02-17T08:04:32.423Z,6.40
2023-02-17T08:06:59.247Z,6.50
2023-02-17T08:09:44.678Z,5.32
2023-02-17T08:12:35.539Z,6.35
2023-02-17T08:15:02.432Z,7.18
2023-02-17T08:17:30.070Z,6.72
2023-02-17T08:19:56.974Z,7.88
2023-02-17T08:22:24.044Z,6.22
2023-02-17T08:24:50.867Z,12.60
2023-02-17T08:27:18.792Z,6.50
2023-02-17T08:29:46.107Z,5.97
2023-02-17T08:32:15.058Z,6.22
2023-02-17T08:34:42.158Z,5.07
2023-02-17T08:37:09.893Z,6.18
2023-02-17T08:39:37.348Z,5.43
2023-02-17T08:44:33.209Z,5.07
2023-02-17T08:47:00.002Z,5.43
2023-02-17T08:49:28.421Z,6.18
2023-02-17T08:51:55.446Z,5.07
2023-02-17T08:54:22.214Z,5.18
2023-02-17T08:56:49.096Z,3.90
2023-02-17T08:59:16.131Z,5.35
2023-02-17T09:01:43.758Z,4.03
2023-02-17T09:04:12.815Z,4.18
2023-02-17T09:06:43.036Z,5.53
2023-02-17T09:09:12.481Z,5.03
2023-02-17T09:11:39.768Z,4.03
2023-02-17T09:14:07.588Z,4.50
2023-02-17T09:16:34.717Z,4.70
2023-02-17T09:19:01.648Z,3.78
2023-02-17T09:21:28.502Z,3.88
2023-02-17T09:23:55.530Z,3.60
2023-02-17T09:26:22.609Z,3.70
2023-02-17T09:28:49.911Z,4.55
2023-02-17T09:31:22.881Z,3.95
2023-02-17T09:33:50.513Z,3.00
2023-02-17T09:36:21.628Z,4.68
2023-02-17T09:38:48.869Z,3.80
2023-02-17T09:41:24.072Z,2.83
2023-02-17T09:43:51.710Z,3.80
2023-02-17T09:46:49.752Z,3.38
2023-02-17T09:49:28.276Z,3.22
2023-02-17T09:52:17.693Z,6.25
2023-02-17T09:54:55.225Z,3.03
2023-02-17T09:57:27.174Z,3.08
2023-02-17T10:00:13.721Z,3.55
2023-02-17T10:03:02.740Z,2.92
2023-02-17T10:05:36.415Z,3.35
2023-02-17T10:08:11.808Z,2.70
2023-02-17T10:10:45.160Z,2.63
2023-02-17T10:13:16.004Z,2.65
2023-02-17T10:15:48.542Z,3.00
2023-02-17T10:18:22.505Z,2.83
2023-02-17T10:20:55.476Z,2.63
2023-02-17T10:23:24.769Z,2.72
2023-02-17T10:26:15.445Z,4.82
2023-02-17T10:29:03.360Z,2.05
2023-02-17T10:31:41.768Z,2.38
2023-02-17T10:34:34.219Z,1.90
2023-02-17T10:37:19.233Z,2.15
2023-02-17T10:40:01.362Z,2.30
2023-02-17T10:42:35.892Z,2.78
2023-02-17T10:45:08.224Z,1.95
2023-02-17T10:47:39.989Z,4.85
2023-02-17T10:50:18.384Z,2.10
2023-02-17T10:52:45.304Z,2.20
2023-02-17T10:55:36.263Z,1.70
2023-02-17T10:58:19.234Z,2.53
2023-02-17T11:38:10.946Z,2.55
2023-02-17T11:40:37.855Z,2.10
2023-02-17T11:43:05.423Z,1.95
2023-02-17T11:45:44.056Z,2.22
2023-02-17T11:48:39.800Z,1.83
2023-02-17T11:51:20.372Z,2.20
2023-02-17T11:54:11.567Z,2.17
2023-02-17T11:56:41.617Z,1.92
2023-02-17T11:59:16.747Z,2.40
2023-02-17T12:01:56.171Z,1.92
2023-02-17T12:04:23.754Z,3.25
2023-02-17T12:06:56.557Z,2.08
2023-02-17T12:09:56.637Z,2.00
2023-02-17T12:12:23.335Z,1.67
2023-02-17T12:15:01.603Z,1.77
2023-02-17T12:17:50.417Z,5.80
2023-02-17T12:28:31.122Z,1.83
2023-02-17T12:31:05.049Z,2.08
2023-02-17T12:34:18.309Z,2.00
2023-02-17T12:36:47.521Z,1.90
2023-02-17T12:39:32.202Z,3.30
2023-02-17T12:42:10.869Z,2.83
2023-02-17T12:45:04.346Z,2.17
2023-02-17T12:47:57.222Z,2.00
2023-02-17T12:50:40.193Z,2.08
2023-02-17T12:53:15.131Z,3.22
2023-02-17T12:55:50.880Z,1.45
2023-02-17T12:58:25.177Z,1.80
2023-02-17T13:01:11.668Z,2.38
2023-02-17T13:03:38.891Z,1.38
2023-02-17T13:06:14.331Z,1.90
2023-02-17T13:08:51.506Z,2.00
2023-02-17T13:14:10.994Z,2.47
2023-02-17T13:16:45.509Z,1.70
2023-02-17T13:19:15.258Z,1.45
2023-02-17T13:21:56.754Z,2.38
2023-02-17T13:24:34.541Z,2.20
2023-02-17T13:27:13.059Z,1.30
2023-02-17T13:29:39.989Z,1.58
2023-02-17T13:32:12.522Z,1.70
2023-02-17T13:34:46.316Z,2.95
2023-02-17T13:37:34.109Z,1.75
2023-02-17T13:40:03.139Z,1.55
2023-02-17T13:42:49.176Z,2.15
2023-02-17T13:45:33.670Z,2.80
2023-02-17T13:48:20.764Z,2.00
2023-02-17T13:50:59.099Z,2.67
2023-02-17T13:53:37.812Z,2.13
2023-02-17T13:56:09.046Z,2.13
2023-02-17T13:58:38.924Z,1.67
2023-02-17T14:01:13.195Z,5.05
2023-02-17T14:03:39.967Z,1.67
2023-02-17T14:06:11.064Z,2.08
2023-02-17T14:08:43.234Z,1.73
2023-02-17T14:11:14.655Z,2.38
2023-02-17T14:13:46.884Z,1.70
2023-02-17T14:16:32.498Z,2.40
2023-02-17T14:19:08.269Z,2.70
2023-02-17T14:21:59.175Z,4.20
2023-02-17T14:24:28.949Z,3.30
2023-02-17T14:27:01.600Z,2.05
2023-02-17T14:29:49.061Z,2.50
2023-02-17T14:32:34.268Z,1.80
2023-02-17T14:35:12.999Z,1.15
2023-02-17T14:37:41.492Z,1.63
2023-02-17T14:40:18.133Z,1.33
2023-02-17T14:42:46.320Z,1.50
2023-02-17T14:45:15.184Z,1.58
2023-02-17T14:47:46.545Z,1.85
2023-02-17T14:50:14.800Z,8.55
2023-02-17T14:52:44.741Z,1.58
2023-02-17T14:55:34.990Z,2.35
2023-02-17T14:58:02.155Z,2.42
2023-02-17T15:00:29.038Z,2.65
2023-02-17T15:02:55.901Z,3.72
2023-02-17T15:05:22.810Z,3.63
2023-02-17T15:07:50.224Z,3.47
2023-02-17T15:10:21.847Z,2.50
2023-02-17T15:12:48.831Z,2.97
2023-02-17T15:15:16.905Z,2.47
2023-02-17T15:17:44.402Z,2.45
2023-02-17T15:22:41.627Z,2.60
2023-02-17T15:25:17.259Z,2.63
2023-02-17T15:27:44.515Z,2.67
2023-02-17T15:30:14.806Z,2.25
2023-02-17T15:32:42.340Z,2.58
2023-02-17T15:35:22.078Z,2.30
2023-02-17T15:37:50.252Z,2.15
2023-02-17T15:40:19.904Z,2.78
2023-02-17T15:42:54.454Z,3.28
2023-02-17T15:45:22.165Z,3.05
2023-02-17T15:47:51.150Z,3.63
2023-02-17T15:50:22.568Z,2.55
2023-02-17T15:52:50.610Z,3.13
2023-02-17T15:55:19.343Z,3.20
2023-02-17T15:57:51.620Z,3.13
2023-02-17T16:00:31.742Z,3.10
2023-02-17T16:02:58.847Z,4.25
2023-02-17T16:05:28.507Z,3.63
2023-02-17T16:07:55.689Z,5.22
2023-02-17T16:10:29.452Z,2.88
2023-02-17T16:12:57.853Z,4.32
2023-02-17T16:15:26.010Z,2.28
2023-02-17T16:17:53.117Z,3.10
2023-02-17T16:20:35.204Z,5.28
2023-02-17T16:23:02.788Z,3.05
2023-02-17T16:25:29.952Z,2.70
2023-02-17T16:27:56.994Z,2.45
2023-02-17T16:30:31.549Z,2.55
2023-02-17T16:32:59.030Z,2.40
2023-02-17T16:38:22.336Z,3.08
2023-02-17T16:40:52.546Z,2.17
2023-02-17T16:43:22.287Z,3.10
2023-02-17T16:45:54.170Z,3.17
2023-02-17T16:48:24.372Z,4.28
2023-02-17T16:50:51.351Z,4.30
2023-02-17T16:53:18.588Z,4.78
2023-02-17T16:55:46.214Z,5.15
2023-02-17T16:58:22.317Z,4.13
2023-02-17T17:00:51.900Z,5.65
2023-02-17T17:03:19.334Z,3.97
2023-02-17T17:08:16.021Z,4.85
2023-02-17T17:10:44.750Z,3.25
2023-02-17T17:13:12.711Z,4.43
2023-02-17T17:15:44.009Z,5.45
2023-02-17T17:18:21.083Z,11.77
2023-02-17T17:20:48.548Z,3.95
2023-02-17T17:28:15.026Z,3.67
2023-02-17T17:30:42.057Z,3.85
2023-02-17T17:33:08.880Z,3.80
2023-02-17T17:35:36.178Z,2.70
2023-02-17T17:38:03.365Z,3.15
2023-02-17T17:40:48.070Z,2.97
2023-02-17T17:43:16.811Z,3.20
2023-02-17T17:45:43.677Z,3.22
2023-02-17T17:48:14.467Z,3.20
2023-02-17T17:50:41.676Z,4.22
2023-02-17T17:53:09.040Z,3.63
2023-02-17T17:55:36.074Z,3.80
2023-02-17T17:58:03.374Z,3.53
2023-02-17T18:00:32.897Z,5.95
2023-02-17T18:02:59.897Z,4.20
2023-02-17T18:05:26.779Z,4.10
2023-02-17T18:07:53.785Z,4.20
2023-02-17T18:10:20.719Z,4.70
2023-02-17T18:12:48.367Z,4.55
2023-02-17T18:15:17.072Z,4.53
2023-02-17T18:17:44.213Z,4.60
2023-02-17T18:20:11.947Z,4.38
2023-02-17T18:22:39.097Z,4.50
2023-02-17T18:25:06.791Z,4.28
2023-02-17T18:27:39.334Z,5.20
2023-02-17T18:30:06.896Z,4.57
2023-02-17T18:32:33.769Z,5.75
2023-02-17T18:35:00.758Z,6.28
2023-02-17T18:37:27.619Z,4.93
2023-02-17T18:39:54.452Z,4.03
2023-02-17T18:42:21.227Z,5.40
2023-02-17T18:44:48.082Z,5.78
2023-02-17T18:47:14.881Z,5.20
2023-02-17T18:49:41.636Z,7.30
2023-02-17T18:52:08.425Z,4.13
2023-02-17T18:54:35.285Z,5.47
2023-02-17T18:57:02.184Z,9.02
2023-02-17T18:59:28.975Z,5.50
2023-02-17T19:01:55.837Z,4.65
2023-02-17T19:04:22.595Z,4.10
2023-02-17T19:06:49.449Z,4.60
2023-02-17T19:09:16.214Z,5.68
2023-02-17T19:11:42.999Z,5.28
2023-02-17T19:14:09.794Z,6.03
2023-02-17T19:16:38.069Z,7.57
2023-02-17T19:19:04.862Z,6.72
2023-02-17T19:21:32.226Z,6.82
2023-02-17T19:23:59.086Z,8.90
2023-02-17T19:26:25.882Z,7.18
2023-02-17T19:28:52.779Z,8.05
2023-02-17T19:31:20.156Z,7.00
2023-02-17T19:36:17.061Z,8.40
2023-02-17T19:38:44.063Z,8.52
2023-02-17T19:41:12.393Z,7.47
2023-02-17T19:43:40.319Z,7.65
2023-02-17T19:46:07.496Z,8.20
2023-02-17T19:48:34.582Z,8.07
2023-02-17T19:51:03.943Z,7.43
2023-02-17T19:53:31.466Z,8.05
2023-02-17T19:56:12.490Z,9.32
2023-02-17T19:58:42.769Z,8.40
2023-02-17T20:01:18.493Z,6.60
2023-02-17T20:03:45.387Z,7.45
2023-02-17T20:06:17.093Z,7.43
2023-02-17T20:08:45.229Z,7.30
2023-02-17T20:11:12.738Z,6.95
2023-02-17T20:13:46.162Z,6.93
2023-02-17T20:16:15.944Z,8.02
2023-02-17T20:18:45.322Z,7.57
2023-02-17T20:21:15.495Z,7.72
2023-02-17T20:23:42.510Z,8.13
2023-02-17T20:26:12.245Z,7.97
2023-02-17T20:28:39.119Z,8.02
2023-02-17T20:31:07.000Z,8.23
2023-02-17T20:33:33.887Z,8.93
2023-02-17T20:36:00.810Z,10.07
2023-02-17T20:38:27.778Z,9.07
2023-02-17T20:40:54.576Z,7.53
2023-02-17T20:43:21.495Z,8.23
2023-02-17T20:45:49.453Z,8.50
2023-02-17T20:48:17.000Z,7.65
2023-02-17T20:50:44.368Z,9.32
2023-02-17T20:53:11.430Z,8.70
2023-02-17T20:55:38.336Z,7.38
2023-02-17T20:58:05.525Z,8.38
2023-02-17T21:00:32.328Z,8.25
2023-02-17T21:02:59.261Z,8.45
2023-02-17T21:05:26.329Z,7.70
2023-02-17T21:07:53.123Z,8.85
2023-02-17T21:10:23.144Z,8.50
2023-02-17T21:12:50.386Z,7.82
2023-02-17T21:15:17.381Z,7.78
2023-02-17T21:17:45.115Z,8.70
2023-02-17T21:20:14.663Z,9.00
2023-02-17T21:22:41.634Z,7.75
2023-02-17T21:25:09.529Z,10.07
2023-02-17T21:27:37.252Z,18.70
2023-02-17T21:30:05.724Z,8.32
2023-02-17T21:32:32.480Z,8.13
2023-02-17T21:34:59.333Z,8.13
2023-02-17T21:37:26.449Z,10.43
2023-02-17T21:39:53.299Z,9.48
2023-02-17T21:42:40.049Z,10.23
2023-02-17T21:45:07.117Z,9.10
2023-02-17T21:47:33.884Z,9.35
2023-02-17T21:50:00.778Z,10.02
2023-02-17T21:52:27.800Z,7.65
2023-02-17T21:54:54.711Z,10.13
2023-02-17T21:57:21.533Z,10.20
2023-02-17T21:59:48.368Z,9.82
2023-02-17T22:02:15.135Z,9.77
2023-02-17T22:04:42.079Z,10.80
2023-02-17T22:07:10.814Z,12.05
2023-02-17T22:09:37.621Z,10.40
2023-02-17T22:12:04.560Z,11.77
2023-02-17T22:14:31.394Z,10.20
2023-02-17T22:16:58.187Z,8.50
2023-02-17T22:19:25.614Z,13.73
2023-02-17T22:21:52.437Z,10.80
2023-02-17T22:24:22.696Z,13.20
2023-02-17T22:26:49.751Z,12.18
2023-02-17T22:29:16.508Z,11.48
2023-02-17T22:31:43.480Z,18.77
2023-02-17T22:34:13.987Z,10.82
2023-02-17T22:36:40.796Z,12.27
2023-02-17T22:39:08.462Z,11.38
2023-02-17T22:41:35.788Z,13.63
2023-02-17T22:44:03.484Z,12.65
2023-02-17T22:46:30.912Z,15.30
2023-02-17T22:51:29.625Z,11.32
2023-02-17T22:53:56.573Z,11.85
2023-02-17T22:56:24.237Z,11.23
2023-02-17T22:58:55.721Z,11.55
2023-02-17T23:01:23.131Z,12.57
2023-02-17T23:04:08.753Z,11.70
2023-02-17T23:06:37.066Z,11.90
2023-02-17T23:09:06.212Z,13.98
2023-02-17T23:11:53.630Z,12.75
2023-02-17T23:14:20.415Z,13.63
2023-02-17T23:16:47.686Z,12.75
2023-02-17T23:19:18.115Z,14.07
2023-02-17T23:21:47.507Z,13.75
2023-02-17T23:24:17.071Z,12.27
2023-02-17T23:26:44.280Z,12.70
2023-02-17T23:29:11.362Z,14.57
2023-02-17T23:31:38.918Z,15.75
2023-02-17T23:34:06.828Z,12.57
2023-02-17T23:36:33.713Z,12.63
2023-02-17T23:39:01.500Z,12.32
2023-02-17T23:41:28.516Z,12.85
2023-02-17T23:43:55.998Z,13.10
2023-02-17T23:48:49.836Z,13.88
2023-02-17T23:51:18.766Z,17.48
2023-02-17T23:53:46.080Z,14.90
2023-02-17T23:56:16.460Z,12.20
2023-02-17T23:58:43.330Z,14.98
